Shaftsbury Center, Vermont
Current Conditions -  °F | °C
As of 10:54 AM on Saturday 25 Oct 2014 (Local Time) from KDDH Reporting Station
Overcast Overcast  
Wind Chill: 50°   Ceiling: 1400
Heat Index: 50°   Visibility: 8mi
Dew Point: 44°   Wind: 6mph
Humidity: 80%   Direction: 200°SSW
Pressure: 29.78"   Gusts: NA
Location:  42.9815°N, 73.2071°W
Report Text: KDDH 251454Z AUTO 20005KT 8SM OVC014 10/07 A2978 RMK AO2 SLP088 T01000067 58014
Loading
Personal Weather Stations






























Interactive Weather Map
Tropical Storm Tracking
New forecast layout! Learn more

10-Day Weather Forecast

Advertisements
Track Severe Weather on mobile